Time;durP1;ratioP1;P1;durP2;ratioP2;P2;SDS_P1;SDS_P2;PMS_P1;PMS_P2;Temp;Humidity;BMP_temperature;BMP_pressure;BME280_temperature;BME280_humidity;BME280_pressure;Samples;Min_cycle;Max_cycle;Signal;HPM_P1;HPM_P2
2022/07/21 17:01:34;;;;;;;6.55;1.95;;;20.30;99.90;;;;;;2505897;23;20024;-60
2022/07/21 17:04:02;;;;;;;6.55;1.98;;;20.20;99.90;;;;;;4856649;29;36658;-59
2022/07/21 17:06:29;;;;;;;5.22;2.00;;;20.00;99.90;;;;;;5346026;23;37749;-59
2022/07/21 17:08:57;;;;;;;5.10;2.00;;;19.90;99.90;;;;;;4843423;29;36216;-59
2022/07/21 17:11:24;;;;;;;5.25;1.63;;;19.90;99.90;;;;;;4843629;29;37236;-59
2022/07/21 17:13:52;;;;;;;6.05;1.90;;;19.80;99.90;;;;;;4844171;29;37492;-58
2022/07/21 17:16:19;;;;;;;5.40;1.90;;;19.70;99.90;;;;;;4841905;29;36557;-58
2022/07/21 17:18:48;;;;;;;6.82;1.90;;;19.60;99.90;;;;;;4841504;29;38819;-58
2022/07/21 17:21:16;;;;;;;4.30;1.30;;;19.60;99.90;;;;;;4845010;29;37307;-58
2022/07/21 17:23:43;;;;;;;4.47;1.67;;;19.50;99.90;;;;;;4842123;29;38815;-58
2022/07/21 17:26:11;;;;;;;5.03;1.48;;;19.50;99.90;;;;;;4841989;29;36357;-58
2022/07/21 17:28:38;;;;;;;4.47;1.27;;;19.40;99.90;;;;;;4843539;29;38620;-58
2022/07/21 17:31:05;;;;;;;6.63;1.52;;;19.40;99.90;;;;;;4842520;29;37014;-58
2022/07/21 17:33:33;;;;;;;6.13;1.40;;;19.40;99.90;;;;;;4841460;29;37717;-58
2022/07/21 17:36:02;;;;;;;6.70;1.30;;;19.30;99.90;;;;;;4843285;29;38405;-58
2022/07/21 17:38:29;;;;;;;5.68;1.80;;;19.30;99.90;;;;;;4843395;29;38909;-59
2022/07/21 17:40:59;;;;;;;4.35;1.20;;;19.20;99.90;;;;;;4843284;29;37553;-58
2022/07/21 17:43:26;;;;;;;5.50;1.83;;;19.20;99.90;;;;;;4842236;29;37648;-58
2022/07/21 17:45:54;;;;;;;3.88;1.15;;;19.20;99.90;;;;;;4842555;29;38723;-58
2022/07/21 17:48:21;;;;;;;5.82;1.27;;;19.10;99.90;;;;;;4843384;29;36755;-58
2022/07/21 17:50:48;;;;;;;4.20;1.00;;;19.20;99.90;;;;;;4844067;29;36831;-58
2022/07/21 17:53:17;;;;;;;3.95;1.20;;;19.10;99.90;;;;;;4837055;29;38185;-58
2022/07/21 17:55:45;;;;;;;4.50;1.10;;;19.10;99.90;;;;;;4844012;29;37840;-59
2022/07/21 18:00:59;;;;;;;3.67;0.77;;;19.10;99.90;;;;;;4844137;29;37355;-58
2022/07/21 18:03:26;;;;;;;2.17;0.57;;;19.00;99.90;;;;;;4831570;29;37440;-58
2022/07/21 18:05:54;;;;;;;4.72;1.05;;;19.00;99.90;;;;;;4843138;29;37837;-59
2022/07/21 18:08:23;;;;;;;2.40;0.90;;;18.90;99.90;;;;;;4825410;29;37442;-58
2022/07/21 18:10:50;;;;;;;3.97;0.80;;;18.90;99.90;;;;;;4833459;29;36426;-59
2022/07/21 18:13:17;;;;;;;4.30;0.82;;;18.80;99.90;;;;;;4831551;29;37840;-59
2022/07/21 18:15:45;;;;;;;4.68;0.98;;;18.80;99.90;;;;;;4833107;29;37547;-59
2022/07/21 18:18:12;;;;;;;6.35;1.25;;;18.80;99.90;;;;;;4832801;29;37425;-58
2022/07/21 18:20:39;;;;;;;3.97;1.08;;;18.70;99.90;;;;;;4833090;29;37459;-58
2022/07/21 18:23:07;;;;;;;4.20;0.85;;;18.70;99.90;;;;;;4833058;29;37510;-58
2022/07/21 18:25:36;;;;;;;3.90;0.93;;;18.80;99.90;;;;;;4832334;29;36431;-57
2022/07/21 18:28:03;;;;;;;1.75;0.70;;;18.80;99.90;;;;;;4832610;29;36079;-58
2022/07/21 18:30:30;;;;;;;2.53;0.85;;;18.70;99.90;;;;;;4833310;29;36493;-58
2022/07/21 18:32:58;;;;;;;2.90;0.60;;;18.80;99.90;;;;;;4833022;29;38020;-58
2022/07/21 18:35:25;;;;;;;3.90;1.00;;;18.70;99.90;;;;;;4833502;29;38882;-58
2022/07/21 18:37:53;;;;;;;11.45;0.90;;;18.70;99.90;;;;;;4832683;29;37572;-59
2022/07/21 18:40:20;;;;;;;4.97;0.90;;;18.70;99.90;;;;;;4832037;29;37432;-58
2022/07/21 18:42:49;;;;;;;3.42;0.55;;;18.70;99.90;;;;;;4832774;29;36402;-58
2022/07/21 18:45:16;;;;;;;4.50;1.05;;;18.60;99.90;;;;;;4834327;29;36661;-58
2022/07/21 18:47:44;;;;;;;1.63;0.57;;;18.60;99.90;;;;;;4834834;29;37175;-58
2022/07/21 18:50:12;;;;;;;2.53;0.57;;;18.60;99.90;;;;;;4834686;29;36375;-57
2022/07/21 18:52:40;;;;;;;5.15;1.05;;;18.60;99.90;;;;;;4834659;29;38082;-58
2022/07/21 18:55:10;;;;;;;1.98;0.70;;;18.60;99.90;;;;;;4833797;29;37923;-58
2022/07/21 18:57:37;;;;;;;3.42;0.60;;;18.60;99.90;;;;;;4834437;29;38663;-58
2022/07/21 19:00:09;;;;;;;3.58;1.00;;;18.60;99.90;;;;;;4834205;29;37455;-58
2022/07/21 19:02:36;;;;;;;3.88;0.70;;;18.60;99.90;;;;;;4836561;29;37138;-59
2022/07/21 19:05:04;;;;;;;4.75;0.90;;;18.60;99.90;;;;;;4837488;29;38102;-58
2022/07/21 19:07:32;;;;;;;2.10;0.47;;;18.60;99.90;;;;;;4829306;29;38017;-58
2022/07/21 19:09:59;;;;;;;1.50;0.52;;;18.60;99.90;;;;;;4823108;29;36390;-59
2022/07/21 19:12:27;;;;;;;1.88;0.57;;;18.60;99.90;;;;;;4833374;29;37285;-58
2022/07/21 19:14:54;;;;;;;2.60;0.73;;;18.60;99.90;;;;;;4834927;29;38515;-58
2022/07/21 19:17:23;;;;;;;1.98;0.73;;;18.60;99.90;;;;;;4834284;29;38519;-59
2022/07/21 19:19:50;;;;;;;4.00;0.85;;;18.60;99.90;;;;;;4833641;29;37433;-58
2022/07/21 19:22:18;;;;;;;3.92;0.70;;;18.60;99.90;;;;;;4834329;29;36469;-57
2022/07/21 19:24:45;;;;;;;3.70;0.85;;;18.60;99.90;;;;;;4833721;29;38743;-58
2022/07/21 19:27:12;;;;;;;6.63;1.48;;;18.60;99.90;;;;;;4834457;29;37634;-58
2022/07/21 19:29:40;;;;;;;2.03;0.70;;;18.60;99.90;;;;;;4835010;29;36584;-58
2022/07/21 19:32:07;;;;;;;4.15;0.95;;;18.70;99.90;;;;;;4834164;29;37979;-58
2022/07/21 19:34:36;;;;;;;4.32;0.93;;;18.60;99.90;;;;;;4834874;29;37769;-58
2022/07/21 19:37:03;;;;;;;3.08;0.70;;;18.60;99.90;;;;;;4834048;29;38252;-58
2022/07/21 19:39:31;;;;;;;3.03;0.70;;;18.60;99.90;;;;;;4834864;29;35372;-58
2022/07/21 19:41:59;;;;;;;4.13;0.95;;;18.60;99.90;;;;;;4833895;29;38449;-58
2022/07/21 19:44:27;;;;;;;3.08;0.88;;;18.60;99.90;;;;;;4834868;29;39658;-58
2022/07/21 19:46:55;;;;;;;4.93;1.10;;;18.60;99.90;;;;;;4834146;29;38003;-57
2022/07/21 19:49:22;;;;;;;4.03;1.02;;;18.60;99.90;;;;;;4831550;29;37340;-58
2022/07/21 19:51:51;;;;;;;3.38;0.82;;;18.60;99.90;;;;;;4835036;29;37436;-58
2022/07/21 19:54:18;;;;;;;14.73;1.40;;;18.60;99.90;;;;;;4834958;29;36500;-58
2022/07/21 19:56:46;;;;;;;5.13;1.00;;;18.60;99.90;;;;;;4833243;29;37533;-58
2022/07/21 19:59:15;;;;;;;4.30;0.90;;;18.60;99.90;;;;;;4833398;29;35773;-57
2022/07/21 20:01:43;;;;;;;5.65;1.13;;;18.50;99.90;;;;;;4833856;29;39055;-58
2022/07/21 20:04:10;;;;;;;7.75;1.10;;;18.50;99.90;;;;;;4833669;29;37807;-62
2022/07/21 20:06:38;;;;;;;7.63;1.13;;;18.60;99.90;;;;;;4830910;29;36600;-58
2022/07/21 20:09:08;;;;;;;5.43;1.02;;;18.50;99.90;;;;;;4834301;29;37600;-58
2022/07/21 20:11:36;;;;;;;5.43;1.00;;;18.50;99.90;;;;;;4831987;29;38610;-58
2022/07/21 20:14:04;;;;;;;2.08;0.70;;;18.50;99.90;;;;;;4833064;29;37551;-57
2022/07/21 20:16:33;;;;;;;7.13;1.50;;;18.50;99.90;;;;;;4833530;29;37292;-58
2022/07/21 20:19:00;;;;;;;6.20;1.27;;;18.40;99.90;;;;;;4833273;29;35824;-58
2022/07/21 20:21:28;;;;;;;6.53;1.15;;;18.40;99.90;;;;;;4832587;29;36737;-58
2022/07/21 20:23:55;;;;;;;7.70;1.23;;;18.40;99.90;;;;;;4832476;29;37792;-57
2022/07/21 20:26:24;;;;;;;6.35;1.50;;;18.40;99.90;;;;;;4826645;29;36082;-58
2022/07/21 20:28:51;;;;;;;4.38;1.30;;;18.30;99.90;;;;;;4832570;29;37172;-58
2022/07/21 20:31:18;;;;;;;5.43;1.40;;;18.30;99.90;;;;;;4835702;29;38145;-58
2022/07/21 20:33:46;;;;;;;6.18;1.30;;;18.30;99.90;;;;;;4825732;29;38260;-57
2022/07/21 20:36:14;;;;;;;4.00;0.80;;;18.30;99.90;;;;;;4836988;29;38000;-57
2022/07/21 20:38:41;;;;;;;8.57;1.30;;;18.30;99.90;;;;;;4823196;29;36782;-58
2022/07/21 20:41:08;;;;;;;5.68;1.15;;;18.30;99.90;;;;;;4829395;29;37597;-58
2022/07/21 20:43:37;;;;;;;6.60;1.42;;;18.30;99.90;;;;;;4835612;29;36363;-58
2022/07/21 20:46:05;;;;;;;4.38;1.00;;;18.30;99.90;;;;;;4836251;29;36057;-58
2022/07/21 20:48:33;;;;;;;6.30;1.27;;;18.30;99.90;;;;;;4836273;29;36906;-58
2022/07/21 20:51:00;;;;;;;6.63;1.08;;;18.30;99.90;;;;;;4830605;29;38837;-58
2022/07/21 20:53:28;;;;;;;7.95;1.42;;;18.30;99.90;;;;;;4835638;29;38020;-58
2022/07/21 20:55:55;;;;;;;3.10;1.00;;;18.30;99.90;;;;;;4830530;29;35926;-58
2022/07/21 20:58:23;;;;;;;5.75;1.00;;;18.30;99.90;;;;;;4824388;29;36412;-58
2022/07/21 21:00:51;;;;;;;3.38;0.82;;;18.30;99.90;;;;;;4821914;29;37347;-58
2022/07/21 21:03:19;;;;;;;5.70;0.90;;;18.30;99.90;;;;;;4835369;29;37635;-58
2022/07/21 21:05:46;;;;;;;3.92;0.88;;;18.30;99.90;;;;;;4822047;29;36587;-58
2022/07/21 21:08:14;;;;;;;3.80;1.30;;;18.30;99.90;;;;;;4807924;29;36310;-58
2022/07/21 21:10:42;;;;;;;2.55;0.75;;;18.30;99.90;;;;;;4809183;29;38370;-58
2022/07/21 21:13:09;;;;;;;5.40;0.88;;;18.30;99.90;;;;;;4815969;29;38079;-58
2022/07/21 21:15:37;;;;;;;3.95;0.80;;;18.30;99.90;;;;;;4803293;29;37365;-58
2022/07/21 21:18:07;;;;;;;2.72;0.90;;;18.30;99.90;;;;;;4815571;29;36654;-58
2022/07/21 21:20:34;;;;;;;3.90;0.65;;;18.30;99.90;;;;;;4809071;29;36211;-58
2022/07/21 21:23:02;;;;;;;4.78;0.90;;;18.20;99.90;;;;;;4822451;29;37850;-58
2022/07/21 21:25:29;;;;;;;4.32;0.90;;;18.20;99.90;;;;;;4814350;29;38203;-58
2022/07/21 21:27:57;;;;;;;5.82;1.70;;;18.10;99.90;;;;;;4814061;29;35148;-58
2022/07/21 21:30:24;;;;;;;7.13;0.75;;;18.20;99.90;;;;;;4814880;29;37402;-58
2022/07/21 21:32:52;;;;;;;4.53;0.98;;;18.10;99.90;;;;;;4813430;29;37875;-58
2022/07/21 21:35:20;;;;;;;3.50;0.90;;;18.10;99.90;;;;;;4814744;29;35960;-58
2022/07/21 21:37:50;;;;;;;2.80;0.80;;;18.10;99.90;;;;;;4814059;29;36008;-58
2022/07/21 21:40:17;;;;;;;4.30;0.90;;;18.10;99.90;;;;;;4810740;29;38030;-59
2022/07/21 21:42:45;;;;;;;2.80;0.90;;;18.10;99.90;;;;;;4813404;29;37026;-58
2022/07/21 21:45:12;;;;;;;6.47;1.25;;;18.10;99.90;;;;;;4817312;29;39466;-58
2022/07/21 21:47:39;;;;;;;2.92;0.98;;;18.10;99.90;;;;;;4816703;29;37552;-59
2022/07/21 21:50:07;;;;;;;5.25;1.23;;;18.10;99.90;;;;;;4817247;29;37756;-58
2022/07/21 21:52:36;;;;;;;5.55;0.88;;;18.10;99.90;;;;;;4819590;29;37116;-58
2022/07/21 21:55:04;;;;;;;6.63;1.23;;;18.10;99.90;;;;;;4819462;29;38388;-59
2022/07/21 21:57:32;;;;;;;9.07;1.05;;;18.10;99.90;;;;;;4816878;29;36714;-59
2022/07/21 21:59:59;;;;;;;5.75;1.20;;;18.10;99.90;;;;;;4818762;29;37359;-59
2022/07/21 22:02:26;;;;;;;5.88;1.08;;;18.10;99.90;;;;;;4817576;29;38659;-59
2022/07/21 22:04:54;;;;;;;5.18;0.90;;;18.10;99.90;;;;;;4816093;29;37445;-59
2022/07/21 22:07:22;;;;;;;4.88;1.10;;;18.10;99.90;;;;;;4819061;29;36515;-58
2022/07/21 22:09:50;;;;;;;7.50;1.45;;;18.10;99.90;;;;;;4810894;29;36826;-58
2022/07/21 22:12:18;;;;;;;8.90;1.60;;;18.10;99.90;;;;;;4819195;29;37718;-58
2022/07/21 22:14:45;;;;;;;12.00;2.15;;;18.10;99.90;;;;;;4816231;29;37366;-59
2022/07/21 22:17:13;;;;;;;5.18;1.33;;;18.00;99.90;;;;;;4816923;29;35414;-58
2022/07/21 22:19:41;;;;;;;10.48;2.38;;;18.00;99.90;;;;;;4818143;29;37379;-58
2022/07/21 22:22:08;;;;;;;5.35;1.67;;;18.10;99.90;;;;;;4816175;29;38547;-59
2022/07/21 22:24:36;;;;;;;8.95;2.30;;;18.10;99.90;;;;;;4815641;29;37503;-59
2022/07/21 22:27:05;;;;;;;11.02;2.13;;;18.00;99.90;;;;;;4816829;29;35985;-58
2022/07/21 22:29:33;;;;;;;9.02;2.20;;;18.10;99.90;;;;;;4810747;29;37445;-59
2022/07/21 22:32:00;;;;;;;11.05;2.55;;;18.00;99.90;;;;;;4810900;29;38738;-58
2022/07/21 22:34:27;;;;;;;4.50;1.63;;;18.00;99.90;;;;;;4812720;29;38142;-59
2022/07/21 22:36:55;;;;;;;5.97;1.50;;;17.90;99.90;;;;;;4811693;29;37402;-59
2022/07/21 22:39:22;;;;;;;5.35;1.50;;;17.90;99.90;;;;;;4813930;29;37334;-59
2022/07/21 22:41:49;;;;;;;5.95;1.52;;;17.90;99.90;;;;;;4820288;29;37479;-59
2022/07/21 22:44:18;;;;;;;7.00;1.30;;;17.90;99.90;;;;;;4816828;29;36154;-59
2022/07/21 22:46:45;;;;;;;7.47;1.60;;;17.80;99.90;;;;;;4817276;29;36518;-58
2022/07/21 22:49:13;;;;;;;6.43;1.70;;;17.80;99.90;;;;;;4815769;29;37453;-58
2022/07/21 22:51:40;;;;;;;7.30;1.50;;;17.80;99.90;;;;;;4818015;29;38445;-59
2022/07/21 22:54:07;;;;;;;6.50;1.70;;;17.70;99.90;;;;;;4817460;29;38581;-58
2022/07/21 22:56:35;;;;;;;3.70;1.30;;;17.80;99.90;;;;;;4817390;29;36627;-59
2022/07/21 22:59:02;;;;;;;6.85;1.67;;;17.70;99.90;;;;;;4817059;29;37379;-59
2022/07/21 23:01:31;;;;;;;4.35;1.52;;;17.80;99.90;;;;;;4815618;29;40054;-59
2022/07/21 23:03:58;;;;;;;5.93;1.90;;;17.80;99.90;;;;;;4817345;29;37304;-59
2022/07/21 23:06:26;;;;;;;10.73;2.42;;;17.70;99.90;;;;;;4816548;29;36637;-59
2022/07/21 23:08:53;;;;;;;8.93;2.03;;;17.70;99.90;;;;;;4836192;29;38560;-58
2022/07/21 23:11:21;;;;;;;11.48;3.17;;;17.70;99.90;;;;;;4834170;29;36317;-59
2022/07/21 23:13:48;;;;;;;6.13;2.10;;;17.70;99.90;;;;;;4836176;29;38951;-58
2022/07/21 23:16:15;;;;;;;6.88;2.28;;;17.60;99.90;;;;;;4835010;29;36614;-58
2022/07/21 23:18:44;;;;;;;9.38;2.60;;;17.70;99.90;;;;;;4834380;29;37536;-58
2022/07/21 23:21:11;;;;;;;9.40;2.50;;;17.60;99.90;;;;;;4835704;29;36778;-59
2022/07/21 23:23:39;;;;;;;10.13;2.70;;;17.70;99.90;;;;;;4835262;29;37554;-58
2022/07/21 23:26:06;;;;;;;7.90;2.45;;;17.70;99.90;;;;;;4833815;29;36643;-58
2022/07/21 23:28:34;;;;;;;8.98;2.67;;;17.70;99.90;;;;;;4836024;29;36203;-58
2022/07/21 23:31:01;;;;;;;8.73;2.70;;;17.70;99.90;;;;;;4836073;29;37472;-58
2022/07/21 23:33:29;;;;;;;11.90;3.47;;;17.70;99.90;;;;;;4835152;29;37389;-58
2022/07/21 23:35:58;;;;;;;10.68;2.70;;;17.70;99.90;;;;;;4834719;29;35373;-59
2022/07/21 23:38:25;;;;;;;11.75;3.35;;;17.70;99.90;;;;;;4835333;29;36420;-58
2022/07/21 23:40:52;;;;;;;9.75;2.65;;;17.70;99.90;;;;;;4836301;29;37985;-58
2022/07/21 23:43:20;;;;;;;13.15;3.45;;;17.70;99.90;;;;;;4835229;29;38609;-58
2022/07/21 23:45:47;;;;;;;14.40;3.30;;;17.80;99.90;;;;;;4834891;29;37181;-58
2022/07/21 23:48:14;;;;;;;11.75;3.13;;;17.80;99.90;;;;;;4836517;29;37239;-58
2022/07/21 23:50:42;;;;;;;10.70;2.88;;;17.80;99.90;;;;;;4836117;29;37898;-58
2022/07/21 23:53:11;;;;;;;11.52;3.20;;;17.80;99.90;;;;;;4834604;29;38727;-58
2022/07/21 23:55:38;;;;;;;10.15;2.95;;;17.80;99.90;;;;;;4834375;29;35277;-58
2022/07/21 23:58:05;;;;;;;10.88;2.88;;;17.80;99.90;;;;;;4834430;29;38323;-58
